Time;durP1;ratioP1;P1;durP2;ratioP2;P2;SDS_P1;SDS_P2;PMS_P1;PMS_P2;Temp;Humidity;BMP_temperature;BMP_pressure;BME280_temperature;BME280_humidity;BME280_pressure;Samples;Min_cycle;Max_cycle;Signal;HPM_P1;HPM_P2
2022/10/14 00:00:38;;;;;;;148.23;81.27;;;;;;;11.96;100.00;101395.47;5074773;28;20466;-46
2022/10/14 00:03:06;;;;;;;146.20;84.47;;;;;;;11.98;100.00;101393.44;5074996;28;20951;-49
2022/10/14 00:05:34;;;;;;;135.73;80.97;;;;;;;12.00;100.00;101391.41;5075458;28;20431;-52
2022/10/14 00:08:01;;;;;;;129.57;79.13;;;;;;;12.00;100.00;101379.88;5075302;28;20456;-53
2022/10/14 00:10:30;;;;;;;134.43;79.60;;;;;;;12.01;100.00;101382.34;5074748;28;20458;-47
2022/10/14 00:12:58;;;;;;;251.07;99.37;;;;;;;12.02;100.00;101378.69;5074814;28;20454;-48
2022/10/14 00:15:25;;;;;;;117.20;77.50;;;;;;;12.02;100.00;101386.69;5075252;28;20862;-50
2022/10/14 00:17:53;;;;;;;127.40;78.27;;;;;;;12.03;100.00;101384.84;5075072;28;20992;-48
2022/10/14 00:20:21;;;;;;;136.30;78.80;;;;;;;12.06;100.00;101392.50;5066038;28;20467;-50
2022/10/14 00:22:48;;;;;;;138.00;78.43;;;;;;;12.07;100.00;101383.44;5074576;28;20511;-50
2022/10/14 00:25:16;;;;;;;100.83;73.30;;;;;;;12.08;100.00;101380.59;5074889;28;20491;-47
2022/10/14 00:27:44;;;;;;;138.73;82.80;;;;;;;12.09;100.00;101384.94;5074800;28;20830;-51
2022/10/14 00:30:12;;;;;;;127.70;78.20;;;;;;;12.11;100.00;101379.38;5074290;28;21049;-48
2022/10/14 00:32:40;;;;;;;142.00;82.40;;;;;;;12.13;100.00;101371.97;5074450;28;20515;-48
2022/10/14 00:35:08;;;;;;;146.73;83.60;;;;;;;12.12;100.00;101381.03;5074776;28;20435;-49
2022/10/14 00:37:35;;;;;;;119.30;79.13;;;;;;;12.11;100.00;101369.50;5074632;28;20427;-48
2022/10/14 00:40:04;;;;;;;124.27;78.00;;;;;;;12.14;100.00;101377.16;5074100;28;20871;-48
2022/10/14 00:42:32;;;;;;;115.83;77.87;;;;;;;12.13;100.00;101371.97;5074522;28;20443;-48
2022/10/14 00:45:11;;;;;;;119.33;76.57;;;;;;;12.13;100.00;101375.50;5074644;28;20433;-51
2022/10/14 00:47:40;;;;;;;159.77;84.73;;;;;;;12.12;100.00;101371.19;5073692;28;20457;-48
2022/10/14 00:50:09;;;;;;;158.40;85.97;;;;;;;12.13;100.00;101371.97;5073855;28;20461;-50
2022/10/14 00:52:37;;;;;;;108.63;72.07;;;;;;;12.15;100.00;101369.97;5073964;28;20454;-51
2022/10/14 00:55:07;;;;;;;117.47;79.23;;;;;;;12.15;100.00;101383.34;5075204;28;20492;-50
2022/10/14 00:57:36;;;;;;;126.53;79.60;;;;;;;12.16;100.00;101377.78;5074252;28;20430;-52
2022/10/14 01:00:09;;;;;;;112.47;75.20;;;;;;;12.16;100.00;101380.47;5073908;28;20516;-53
2022/10/14 01:02:37;;;;;;;147.10;85.73;;;;;;;12.17;100.00;101371.44;5074068;28;20446;-53
2022/10/14 01:05:08;;;;;;;126.47;79.23;;;;;;;12.18;100.00;101377.59;5074084;28;20504;-53
2022/10/14 01:08:02;;;;;;;123.97;78.80;;;;;;;12.19;100.00;101371.22;5074363;28;20460;-49
2022/10/14 01:10:39;;;;;;;139.07;81.33;;;;;;;12.18;100.00;101373.06;5059481;28;20458;-50
2022/10/14 01:13:19;;;;;;;113.17;78.07;;;;;;;12.19;100.00;101382.75;5073880;28;20552;-54
2022/10/14 01:15:58;;;;;;;132.77;79.10;;;;;;;12.20;100.00;101380.91;5074247;28;20423;-52
2022/10/14 01:18:49;;;;;;;150.17;85.37;;;;;;;12.20;100.00;101375.56;5074072;28;20491;-52
2022/10/14 01:21:23;;;;;;;159.30;85.43;;;;;;;12.20;100.00;101375.56;5064709;28;20508;-51
2022/10/14 01:24:10;;;;;;;109.83;75.57;;;;;;;12.21;100.00;101377.22;5053786;28;20474;-49
2022/10/14 01:26:56;;;;;;;147.37;85.07;;;;;;;12.22;100.00;101378.84;5054005;28;20439;-52
2022/10/14 01:29:59;;;;;;;121.70;77.53;;;;;;;12.21;100.00;101371.88;5053727;28;20424;-49
2022/10/14 01:32:29;;;;;;;157.23;92.13;;;;;;;12.21;100.00;101377.22;5053038;28;20446;-51
2022/10/14 01:35:06;;;;;;;145.87;85.80;;;;;;;12.21;100.00;101377.22;5053768;28;20431;-50
2022/10/14 01:37:37;;;;;;;142.97;81.70;;;;;;;12.23;100.00;101369.00;5053748;28;20477;-53
2022/10/14 01:40:09;;;;;;;168.30;87.27;;;;;;;12.23;100.00;101369.00;5053063;28;20456;-48
2022/10/14 01:42:40;;;;;;;139.10;82.10;;;;;;;12.22;100.00;101368.16;5053066;28;20470;-50
2022/10/14 01:45:14;;;;;;;177.47;88.90;;;;;;;12.24;100.00;101368.00;5053355;28;20980;-47
2022/10/14 01:47:43;;;;;;;121.43;78.70;;;;;;;12.23;100.00;101364.47;5053547;28;20481;-50
2022/10/14 01:50:15;;;;;;;126.57;79.47;;;;;;;12.24;100.00;101368.81;5052876;28;20867;-49
2022/10/14 01:52:48;;;;;;;169.17;84.97;;;;;;;12.26;100.00;101372.13;5052999;28;20509;-51
2022/10/14 01:55:19;;;;;;;164.53;86.97;;;;;;;12.26;100.00;101374.78;5053122;28;20439;-53
2022/10/14 01:57:51;;;;;;;168.13;89.00;;;;;;;12.25;100.00;101373.13;5053464;28;20435;-49
2022/10/14 02:00:20;;;;;;;133.93;82.87;;;;;;;12.25;100.00;101373.13;5052799;28;20459;-50
2022/10/14 02:02:47;;;;;;;147.63;82.87;;;;;;;12.24;100.00;101373.34;5052885;28;20459;-50
2022/10/14 02:05:21;;;;;;;196.27;89.90;;;;;;;12.23;100.00;101369.00;5052930;28;20517;-49
2022/10/14 02:07:55;;;;;;;154.50;87.83;;;;;;;12.22;100.00;101362.81;5052959;28;20411;-49
2022/10/14 02:10:36;;;;;;;151.77;81.33;;;;;;;12.23;100.00;101366.31;5052263;28;20467;-51
2022/10/14 02:13:23;;;;;;;209.43;97.03;;;;;;;12.21;100.00;101361.19;5052769;28;20501;-50
2022/10/14 02:16:02;;;;;;;180.97;97.30;;;;;;;12.21;100.00;101361.19;5052854;28;20435;-55
2022/10/14 02:18:35;;;;;;;155.43;86.47;;;;;;;12.21;100.00;101364.66;5053008;28;20843;-52
2022/10/14 02:21:22;;;;;;;197.30;94.10;;;;;;;12.20;100.00;101356.84;5059413;28;20462;-53
2022/10/14 02:23:57;;;;;;;169.33;95.43;;;;;;;12.20;100.00;101364.88;5052714;28;20471;-48
2022/10/14 02:26:26;;;;;;;158.77;83.13;;;;;;;12.21;100.00;101363.84;5052557;28;20504;-49
2022/10/14 02:28:55;;;;;;;202.70;93.27;;;;;;;12.20;100.00;101364.88;5052555;28;21068;-52
2022/10/14 02:31:26;;;;;;;148.50;83.47;;;;;;;12.17;100.00;101366.06;5051757;28;20467;-51
2022/10/14 02:33:58;;;;;;;140.27;83.13;;;;;;;12.14;100.00;101361.13;5052431;28;20423;-54
2022/10/14 02:36:27;;;;;;;133.03;81.60;;;;;;;12.10;100.00;101364.34;5052447;28;20431;-49
2022/10/14 02:38:58;;;;;;;113.60;74.10;;;;;;;12.07;100.00;101368.22;5052358;28;20435;-54
2022/10/14 02:41:30;;;;;;;122.43;74.50;;;;;;;12.06;100.00;101368.44;5051738;28;20547;-50
2022/10/14 02:43:58;;;;;;;145.90;77.70;;;;;;;12.05;100.00;101367.59;5052505;28;20548;-50
2022/10/14 02:46:27;;;;;;;111.43;71.80;;;;;;;12.03;100.00;101358.13;5052810;28;20469;-53
2022/10/14 02:48:55;;;;;;;131.47;76.87;;;;;;;12.02;100.00;101361.81;5052186;28;20431;-49
2022/10/14 02:51:23;;;;;;;119.83;71.10;;;;;;;11.99;100.00;101359.50;5051298;28;20463;-55
2022/10/14 02:53:50;;;;;;;129.73;75.10;;;;;;;11.95;100.00;101363.56;5052168;28;20435;-50
2022/10/14 02:56:18;;;;;;;109.03;70.40;;;;;;;11.92;100.00;101356.78;5052304;28;20493;-50
2022/10/14 02:58:46;;;;;;;106.63;65.40;;;;;;;11.88;100.00;101360.03;5052148;28;20427;-52
2022/10/14 03:01:13;;;;;;;79.00;62.80;;;;;;;11.85;100.00;101358.56;5051395;28;20463;-49
2022/10/14 03:03:42;;;;;;;86.57;63.47;;;;;;;11.82;100.00;101355.44;5051755;28;20444;-51
2022/10/14 03:06:10;;;;;;;80.27;60.20;;;;;;;11.80;100.00;101355.63;5052190;28;20435;-54
2022/10/14 03:08:37;;;;;;;78.60;60.20;;;;;;;11.77;100.00;101355.19;5052049;28;20427;-52
2022/10/14 03:11:05;;;;;;;78.47;59.80;;;;;;;11.73;100.00;101352.06;5050726;28;21057;-51
2022/10/14 03:13:33;;;;;;;91.00;62.13;;;;;;;11.73;100.00;101345.88;5051790;28;20459;-50
2022/10/14 03:16:01;;;;;;;83.03;62.77;;;;;;;11.72;100.00;101350.41;5051803;28;20844;-51
2022/10/14 03:18:29;;;;;;;106.50;66.40;;;;;;;11.74;100.00;101345.69;5051559;28;20485;-52
2022/10/14 03:20:58;;;;;;;92.77;64.93;;;;;;;11.74;100.00;101337.66;5057701;28;20466;-50
2022/10/14 03:23:25;;;;;;;87.00;63.83;;;;;;;11.75;100.00;101343.84;5071718;28;20519;-47
2022/10/14 03:25:53;;;;;;;74.90;56.07;;;;;;;11.76;100.00;101342.84;5071730;28;20466;-50
2022/10/14 03:28:20;;;;;;;72.47;62.17;;;;;;;11.73;100.00;101340.53;5071556;28;20853;-48
2022/10/14 03:30:48;;;;;;;68.17;56.93;;;;;;;11.67;100.00;101347.44;5070911;28;20497;-45
2022/10/14 03:33:16;;;;;;;74.03;57.03;;;;;;;11.64;100.00;101345.97;5071416;28;20458;-48
2022/10/14 03:35:47;;;;;;;79.27;59.13;;;;;;;11.64;100.00;101345.16;5071650;28;20469;-50
2022/10/14 03:38:16;;;;;;;94.90;61.67;;;;;;;11.62;100.00;101339.97;5071703;28;20430;-52
2022/10/14 03:40:44;;;;;;;78.07;58.57;;;;;;;11.60;100.00;101347.38;5071012;28;20478;-47
2022/10/14 03:43:11;;;;;;;99.23;62.97;;;;;;;11.60;100.00;101347.38;5071443;28;20450;-49
2022/10/14 03:45:39;;;;;;;80.27;59.93;;;;;;;11.60;100.00;101346.53;5070133;28;20469;-47
2022/10/14 03:48:06;;;;;;;74.23;56.70;;;;;;;11.61;100.00;101350.88;5071007;28;20773;-49
2022/10/14 03:50:35;;;;;;;77.30;58.57;;;;;;;11.61;100.00;101353.53;5069855;28;20516;-48
2022/10/14 03:53:02;;;;;;;87.03;61.30;;;;;;;11.60;100.00;101350.03;5070134;28;21034;-47
2022/10/14 03:55:31;;;;;;;87.30;58.50;;;;;;;11.59;100.00;101345.69;5071354;28;20434;-50
2022/10/14 03:57:59;;;;;;;68.83;57.50;;;;;;;11.59;100.00;101342.19;5071276;28;20507;-50
2022/10/14 04:00:26;;;;;;;85.73;57.00;;;;;;;11.57;100.00;101341.56;5071049;28;20470;-47
2022/10/14 04:02:54;;;;;;;76.93;54.97;;;;;;;11.54;100.00;101339.28;5071138;28;20500;-45
2022/10/14 04:05:22;;;;;;;73.30;54.73;;;;;;;11.51;100.00;101332.47;5071398;28;20527;-52
2022/10/14 04:07:49;;;;;;;82.47;56.30;;;;;;;11.50;100.00;101335.31;5071334;28;20575;-50
2022/10/14 04:10:17;;;;;;;86.80;60.60;;;;;;;11.47;100.00;101331.19;5070842;28;20467;-49
2022/10/14 04:12:47;;;;;;;71.93;55.37;;;;;;;11.46;100.00;101334.88;5070812;28;20459;-47
2022/10/14 04:15:14;;;;;;;75.87;58.13;;;;;;;11.43;100.00;101334.44;5071366;28;20487;-51
2022/10/14 04:17:42;;;;;;;72.50;55.17;;;;;;;11.42;100.00;101322.06;5071153;28;20431;-50
2022/10/14 04:20:10;;;;;;;80.77;54.80;;;;;;;11.41;100.00;101326.59;5063949;28;20528;-49
2022/10/14 04:22:38;;;;;;;93.73;61.93;;;;;;;11.42;100.00;101328.25;5069834;28;20454;-47
2022/10/14 04:25:07;;;;;;;110.77;64.13;;;;;;;11.43;100.00;101326.41;5074817;28;20873;-53
2022/10/14 04:27:34;;;;;;;92.60;63.90;;;;;;;11.45;100.00;101333.22;5075030;28;20839;-48
2022/10/14 04:30:04;;;;;;;86.33;61.23;;;;;;;11.47;100.00;101325.00;5074565;28;20469;-49
2022/10/14 04:32:31;;;;;;;80.30;62.00;;;;;;;11.49;100.00;101323.00;5074191;28;20488;-48
2022/10/14 04:34:59;;;;;;;93.67;61.40;;;;;;;11.51;100.00;101318.28;5074796;28;20624;-49
2022/10/14 04:37:27;;;;;;;94.73;66.30;;;;;;;11.51;100.00;101329.78;5074678;28;20436;-52
2022/10/14 04:39:55;;;;;;;95.40;64.70;;;;;;;11.52;100.00;101314.59;5073998;28;20465;-50
2022/10/14 04:42:23;;;;;;;88.43;58.80;;;;;;;11.54;100.00;101326.75;5074508;28;20495;-47
2022/10/14 04:44:51;;;;;;;93.10;64.67;;;;;;;11.55;100.00;101323.06;5074411;28;20559;-50
2022/10/14 04:47:20;;;;;;;84.13;60.30;;;;;;;11.55;100.00;101324.91;5074447;28;20437;-47
2022/10/14 04:49:47;;;;;;;99.07;63.53;;;;;;;11.56;100.00;101316.69;5074013;28;20438;-48
2022/10/14 04:52:15;;;;;;;81.13;60.10;;;;;;;11.56;100.00;101315.84;5073954;28;20459;-50
2022/10/14 04:54:43;;;;;;;85.00;61.40;;;;;;;11.57;100.00;101320.19;5074324;28;20493;-49
2022/10/14 04:57:10;;;;;;;109.43;64.77;;;;;;;11.58;100.00;101319.19;5074443;28;20438;-49
2022/10/14 04:59:38;;;;;;;88.63;62.47;;;;;;;11.60;100.00;101311.81;5073665;28;20479;-50
2022/10/14 05:02:05;;;;;;;111.57;65.80;;;;;;;11.61;100.00;101322.31;5073848;28;20454;-49
2022/10/14 05:04:34;;;;;;;107.50;65.53;;;;;;;11.62;100.00;101313.25;5074036;28;20940;-53
2022/10/14 05:07:02;;;;;;;119.67;70.93;;;;;;;11.64;100.00;101311.25;5074018;28;20469;-52
2022/10/14 05:09:29;;;;;;;102.47;66.27;;;;;;;11.66;100.00;101305.69;5073844;28;20430;-50
2022/10/14 05:11:57;;;;;;;139.00;76.60;;;;;;;11.67;100.00;101310.03;5073931;28;20454;-50
2022/10/14 05:14:25;;;;;;;110.70;70.30;;;;;;;11.68;100.00;101309.00;5073971;28;20435;-51
2022/10/14 05:16:52;;;;;;;131.87;74.20;;;;;;;11.68;100.00;101304.50;5073755;28;20434;-47
2022/10/14 05:19:20;;;;;;;106.53;69.70;;;;;;;11.71;100.00;101305.97;5073684;28;20495;-52
2022/10/14 05:21:49;;;;;;;121.80;71.03;;;;;;;11.72;100.00;101299.63;5064926;28;20470;-47
2022/10/14 05:24:16;;;;;;;146.60;78.37;;;;;;;11.73;100.00;101309.31;5074013;28;20435;-47
2022/10/14 05:26:44;;;;;;;123.03;71.60;;;;;;;11.74;100.00;101302.13;5073765;28;20882;-54
2022/10/14 05:29:12;;;;;;;125.53;75.17;;;;;;;11.76;100.00;101295.56;5073745;28;20434;-47
2022/10/14 05:31:39;;;;;;;127.27;76.43;;;;;;;11.78;100.00;101300.72;5072498;28;20474;-50
2022/10/14 05:34:07;;;;;;;140.20;73.43;;;;;;;11.78;100.00;101306.06;5073239;28;20426;-49
2022/10/14 05:36:35;;;;;;;140.53;74.93;;;;;;;11.80;100.00;101304.84;5073721;28;20508;-48
2022/10/14 05:39:07;;;;;;;159.87;82.03;;;;;;;11.81;100.00;101306.50;5073598;28;20805;-49
2022/10/14 05:41:34;;;;;;;181.73;86.40;;;;;;;11.82;100.00;101302.81;5072635;28;20477;-52
2022/10/14 05:44:02;;;;;;;137.87;77.93;;;;;;;11.81;100.00;101301.16;5073475;28;20898;-54
2022/10/14 05:46:29;;;;;;;154.17;78.30;;;;;;;11.83;100.00;101299.13;5073152;28;20859;-51
2022/10/14 05:48:59;;;;;;;132.63;74.77;;;;;;;11.83;100.00;101303.63;5073151;28;20435;-47
2022/10/14 05:51:26;;;;;;;136.50;79.30;;;;;;;11.85;100.00;101290.94;5072556;28;20504;-52
2022/10/14 05:53:54;;;;;;;123.83;78.30;;;;;;;11.85;100.00;101293.59;5073162;28;21073;-49
2022/10/14 05:56:23;;;;;;;147.63;79.97;;;;;;;11.86;100.00;101289.88;5073071;28;20484;-47
2022/10/14 05:58:50;;;;;;;100.37;69.77;;;;;;;11.86;100.00;101295.22;5072905;28;20438;-47
2022/10/14 06:01:18;;;;;;;142.60;80.43;;;;;;;11.86;100.00;101296.06;5072197;28;21053;-47
2022/10/14 06:03:49;;;;;;;154.60;81.27;;;;;;;11.87;100.00;101291.56;5073088;28;20441;-49
2022/10/14 06:06:17;;;;;;;148.20;79.30;;;;;;;11.86;100.00;101289.88;5073062;28;20470;-47
2022/10/14 06:08:45;;;;;;;153.40;83.53;;;;;;;11.86;100.00;101296.06;5072906;28;20487;-49
2022/10/14 06:11:13;;;;;;;170.30;81.03;;;;;;;11.87;100.00;101287.03;5072086;28;20458;-47
2022/10/14 06:13:42;;;;;;;144.57;75.70;;;;;;;11.88;100.00;101290.53;5072572;28;20508;-47
2022/10/14 06:16:10;;;;;;;181.30;84.07;;;;;;;11.88;100.00;101287.88;5072876;28;20477;-49
2022/10/14 06:18:39;;;;;;;193.03;90.30;;;;;;;11.89;100.00;101286.84;5072780;28;20438;-46
2022/10/14 06:21:07;;;;;;;166.70;86.60;;;;;;;11.89;100.00;101290.34;5063540;28;20523;-47
2022/10/14 06:23:34;;;;;;;187.20;86.23;;;;;;;11.90;100.00;101291.16;5072538;28;20454;-47
2022/10/14 06:26:04;;;;;;;143.43;79.37;;;;;;;11.92;100.00;101302.47;5072387;28;20531;-45
2022/10/14 06:28:32;;;;;;;145.17;79.93;;;;;;;11.95;100.00;101302.09;5072476;28;20434;-45
2022/10/14 06:31:01;;;;;;;157.13;79.17;;;;;;;11.96;100.00;101288.56;5071850;28;20466;-45
2022/10/14 06:33:29;;;;;;;150.53;77.47;;;;;;;11.98;100.00;101301.72;5072415;28;20451;-47
2022/10/14 06:35:58;;;;;;;139.67;80.20;;;;;;;12.01;100.00;101301.34;5072429;28;20430;-50
2022/10/14 06:38:25;;;;;;;175.33;85.80;;;;;;;12.02;100.00;101300.31;5072231;28;20928;-49
2022/10/14 06:40:53;;;;;;;131.27;77.90;;;;;;;12.02;100.00;101295.81;5071570;28;20971;-47
2022/10/14 06:43:22;;;;;;;145.83;82.87;;;;;;;12.05;100.00;101298.09;5072318;28;20866;-49
2022/10/14 06:45:50;;;;;;;145.63;78.90;;;;;;;12.07;100.00;101297.91;5071521;28;20488;-49
2022/10/14 06:48:18;;;;;;;128.80;77.27;;;;;;;12.07;100.00;101290.72;5072083;28;20434;-49
2022/10/14 06:50:46;;;;;;;158.30;80.20;;;;;;;12.14;100.00;101293.44;5071276;28;20527;-47
2022/10/14 06:53:14;;;;;;;154.13;84.03;;;;;;;12.14;100.00;101298.78;5071987;28;20458;-51
2022/10/14 06:55:41;;;;;;;141.97;74.53;;;;;;;12.19;100.00;101294.50;5072226;28;20827;-48
2022/10/14 06:58:09;;;;;;;157.40;84.10;;;;;;;12.22;100.00;101301.31;5071955;28;20427;-47
2022/10/14 07:00:36;;;;;;;155.70;82.10;;;;;;;12.28;100.00;101297.88;5071635;28;20543;-47
2022/10/14 07:03:04;;;;;;;141.53;76.47;;;;;;;12.27;100.00;101288.22;5071714;28;20456;-49
2022/10/14 07:05:33;;;;;;;161.67;80.73;;;;;;;12.31;100.00;101292.13;5071808;28;20484;-47
2022/10/14 07:08:00;;;;;;;116.43;75.50;;;;;;;12.37;100.00;101294.03;5072025;28;20482;-47
2022/10/14 07:10:33;;;;;;;113.53;70.10;;;;;;;12.42;100.00;101296.13;5071399;28;20909;-51
2022/10/14 07:13:01;;;;;;;137.57;76.60;;;;;;;12.43;100.00;101287.06;5071540;28;20457;-47
2022/10/14 07:15:28;;;;;;;122.70;70.37;;;;;;;12.46;100.00;101294.69;5071912;28;20484;-47
2022/10/14 07:18:04;;;;;;;114.57;68.80;;;;;;;12.48;100.00;101293.50;5071676;28;20454;-47
2022/10/14 07:20:33;;;;;;;141.90;76.07;;;;;;;12.46;100.00;101290.19;5062921;28;20506;-48
2022/10/14 07:23:00;;;;;;;112.87;69.30;;;;;;;12.48;100.00;101292.69;5071403;28;21049;-49
2022/10/14 07:25:28;;;;;;;100.47;68.47;;;;;;;12.50;100.00;101296.81;5071639;28;20438;-50
2022/10/14 07:27:55;;;;;;;107.53;69.00;;;;;;;12.52;100.00;101294.75;5071516;28;20473;-48
2022/10/14 07:30:23;;;;;;;111.40;69.30;;;;;;;12.50;100.00;101282.59;5071142;28;20474;-46
2022/10/14 07:32:51;;;;;;;87.97;64.80;;;;;;;12.53;100.00;101296.41;5071205;28;20462;-52
2022/10/14 07:35:18;;;;;;;85.10;62.33;;;;;;;12.61;100.00;101290.06;5071544;28;20488;-47
2022/10/14 07:37:49;;;;;;;85.30;61.97;;;;;;;12.69;100.00;101300.63;5071757;28;20426;-52
2022/10/14 07:40:16;;;;;;;93.30;64.10;;;;;;;12.82;100.00;101297.19;5071093;28;20463;-49
2022/10/14 07:42:44;;;;;;;81.50;61.40;;;;;;;12.93;100.00;101305.47;5071159;28;20524;-50
2022/10/14 07:45:15;;;;;;;87.07;61.13;;;;;;;13.01;100.00;101299.97;5071325;28;20463;-47
2022/10/14 07:47:42;;;;;;;79.43;58.37;;;;;;;13.11;100.00;101295.09;5071568;28;20467;-50
2022/10/14 07:50:10;;;;;;;85.73;63.20;;;;;;;13.15;100.00;101299.03;5071055;28;20451;-50
2022/10/14 07:52:38;;;;;;;76.90;57.40;;;;;;;13.14;100.00;101305.41;5071108;28;20446;-48
2022/10/14 07:55:08;;;;;;;70.47;56.70;;;;;;;13.08;100.00;101306.22;5071321;28;20496;-46
2022/10/14 07:57:35;;;;;;;69.87;55.70;;;;;;;13.06;100.00;101305.56;5072859;28;20430;-56
2022/10/14 08:00:04;;;;;;;78.33;57.53;;;;;;;13.09;100.00;101312.41;5074863;28;20458;-53
2022/10/14 08:02:32;;;;;;;64.73;55.40;;;;;;;13.03;100.00;101310.47;5075174;28;20524;-49
2022/10/14 08:05:00;;;;;;;77.43;56.47;;;;;;;13.10;100.00;101312.22;5075672;28;20431;-54
2022/10/14 08:07:47;;;;;;;70.40;54.20;;;;;;;13.20;100.00;101304.63;5075244;28;20577;-52
2022/10/14 08:10:16;;;;;;;67.53;54.30;;;;;;;13.26;100.00;101311.84;5074676;28;21013;-52
2022/10/14 08:12:45;;;;;;;65.07;53.40;;;;;;;13.36;100.00;101302.63;5074779;28;20480;-52
2022/10/14 08:15:12;;;;;;;59.47;52.87;;;;;;;13.41;100.00;101309.00;5075203;28;20437;-51
2022/10/14 08:17:40;;;;;;;61.17;53.87;;;;;;;13.49;100.00;101302.66;5075145;28;20430;-52
2022/10/14 08:20:08;;;;;;;65.40;52.60;;;;;;;13.60;100.00;101300.22;5067864;28;21052;-49
2022/10/14 08:22:35;;;;;;;59.47;52.50;;;;;;;13.73;100.00;101305.63;5073026;28;20947;-52
2022/10/14 08:25:03;;;;;;;59.93;53.47;;;;;;;13.78;100.00;101303.16;5075050;28;20438;-49
2022/10/14 08:27:32;;;;;;;59.63;51.77;;;;;;;13.79;100.00;101299.44;5074636;28;20979;-52
2022/10/14 08:30:00;;;;;;;57.57;51.43;;;;;;;13.76;100.00;101294.50;5074218;28;20466;-55
2022/10/14 08:32:28;;;;;;;60.30;53.77;;;;;;;13.78;100.00;101295.09;5074357;28;20495;-50
2022/10/14 08:34:55;;;;;;;56.77;49.33;;;;;;;13.75;100.00;101297.34;5074654;28;20442;-53
2022/10/14 08:37:23;;;;;;;55.77;49.73;;;;;;;13.74;100.00;101293.84;5074918;28;21316;-55
2022/10/14 08:39:51;;;;;;;54.47;48.87;;;;;;;13.76;100.00;101293.66;5074330;28;20450;-51
2022/10/14 08:42:35;;;;;;;57.13;51.00;;;;;;;13.84;100.00;101283.56;5074485;28;20508;-55
2022/10/14 08:45:09;;;;;;;57.80;52.17;;;;;;;13.93;100.00;101286.88;5074614;28;20443;-53
2022/10/14 08:47:40;;;;;;;51.20;46.57;;;;;;;14.10;100.00;101282.75;5074854;28;20546;-48
2022/10/14 08:50:22;;;;;;;52.20;47.40;;;;;;;14.31;100.00;101281.69;5074167;28;20465;-54
2022/10/14 08:52:54;;;;;;;55.57;50.10;;;;;;;14.48;100.00;101274.09;5074270;28;20450;-49
2022/10/14 08:55:28;;;;;;;56.57;51.07;;;;;;;14.72;100.00;101282.31;5074470;28;20438;-50
2022/10/14 08:58:00;;;;;;;56.27;50.73;;;;;;;14.97;100.00;101271.69;5074320;28;20933;-49
2022/10/14 09:00:33;;;;;;;59.10;53.10;;;;;;;15.10;100.00;101277.00;5073652;28;20469;-50
2022/10/14 09:03:04;;;;;;;54.30;49.00;;;;;;;15.23;100.00;101276.94;5073968;28;20439;-51
2022/10/14 09:05:32;;;;;;;56.50;51.50;;;;;;;15.43;100.00;101266.94;5074254;28;20532;-46
2022/10/14 09:08:01;;;;;;;52.37;47.70;;;;;;;15.68;100.00;101275.06;5074062;28;20473;-48
2022/10/14 09:10:32;;;;;;;53.80;49.20;;;;;;;15.86;100.00;101275.13;5072707;28;20507;-53
2022/10/14 09:13:11;;;;;;;53.43;48.57;;;;;;;16.02;100.00;101269.22;5073730;28;20504;-51
2022/10/14 09:15:43;;;;;;;49.00;44.93;;;;;;;15.95;100.00;101279.19;5074126;28;20438;-49
2022/10/14 09:18:23;;;;;;;50.83;46.57;;;;;;;15.89;100.00;101265.81;5074010;28;20426;-51
2022/10/14 09:20:53;;;;;;;54.17;49.27;;;;;;;15.67;100.00;101268.03;5064637;28;20454;-47
2022/10/14 09:23:22;;;;;;;47.97;44.27;;;;;;;15.57;100.00;101262.31;5073564;28;20967;-49
2022/10/14 09:25:56;;;;;;;48.30;43.97;;;;;;;15.61;100.00;101271.59;5073851;28;20434;-47
2022/10/14 09:28:33;;;;;;;48.70;44.90;;;;;;;15.53;100.00;101266.47;5073807;28;20503;-48
2022/10/14 09:31:03;;;;;;;50.60;46.20;;;;;;;15.43;100.00;101263.41;5072923;28;21008;-50
2022/10/14 09:33:32;;;;;;;54.50;49.33;;;;;;;15.44;100.00;101257.81;5073377;28;21040;-49
2022/10/14 09:36:09;;;;;;;50.40;46.30;;;;;;;15.53;100.00;101249.53;5073509;28;20528;-46
2022/10/14 09:38:37;;;;;;;51.73;46.63;;;;;;;15.53;100.00;101249.53;5073457;28;20430;-47
2022/10/14 09:41:10;;;;;;;52.27;47.40;;;;;;;15.58;100.00;101247.84;5072666;28;21165;-53
2022/10/14 09:43:37;;;;;;;52.30;47.80;;;;;;;15.68;100.00;101250.84;5073378;28;20438;-49
2022/10/14 09:46:11;;;;;;;51.87;47.27;;;;;;;15.74;100.00;101246.50;5073861;28;20431;-51
2022/10/14 09:48:44;;;;;;;51.10;46.33;;;;;;;16.03;100.00;101249.38;5073083;28;20983;-53
2022/10/14 09:51:20;;;;;;;53.00;47.80;;;;;;;15.98;100.00;101259.09;5072608;28;20519;-50
2022/10/14 09:53:51;;;;;;;53.50;48.40;;;;;;;15.99;100.00;101250.00;5073132;28;20503;-52
2022/10/14 09:56:29;;;;;;;51.90;47.13;;;;;;;15.88;100.00;101248.88;5073031;28;20422;-54
2022/10/14 09:58:58;;;;;;;49.80;45.50;;;;;;;15.95;100.00;101246.94;5073407;28;20457;-53
2022/10/14 10:01:29;;;;;;;50.80;46.10;;;;;;;15.93;100.00;101251.72;5072384;28;20532;-49
2022/10/14 10:04:17;;;;;;;52.47;47.70;;;;;;;16.02;100.00;101252.25;5073136;28;20797;-52
2022/10/14 10:06:53;;;;;;;52.17;47.87;;;;;;;15.98;100.00;101254.56;5072867;28;20492;-53
2022/10/14 10:09:21;;;;;;;51.83;47.57;;;;;;;15.81;100.00;101249.94;5072728;28;20465;-54
2022/10/14 10:11:49;;;;;;;50.57;46.30;;;;;;;15.77;100.00;101246.06;5072029;28;20516;-50
2022/10/14 10:14:21;;;;;;;53.67;48.93;;;;;;;15.66;100.00;101247.56;5072861;28;20488;-53
2022/10/14 10:16:50;;;;;;;53.83;49.13;;;;;;;15.72;100.00;101235.94;5072854;28;20434;-52
2022/10/14 10:19:27;;;;;;;51.37;46.97;;;;;;;15.78;100.00;101240.44;5072181;28;20438;-52
2022/10/14 10:22:16;;;;;;;51.00;46.60;;;;;;;15.84;100.00;101228.00;5064153;28;20446;-50
2022/10/14 10:24:50;;;;;;;48.93;45.03;;;;;;;15.87;100.00;101233.75;5072619;28;20959;-47
2022/10/14 10:27:24;;;;;;;52.10;47.37;;;;;;;15.98;100.00;101222.28;5072525;28;20461;-52
2022/10/14 10:29:54;;;;;;;48.80;44.67;;;;;;;16.37;100.00;101214.88;5071799;28;20511;-49
2022/10/14 10:32:30;;;;;;;50.87;46.57;;;;;;;16.82;100.00;101204.66;5072155;28;20458;-53
2022/10/14 10:35:14;;;;;;;49.37;45.30;;;;;;;17.17;100.00;101210.22;5072381;28;20475;-49
2022/10/14 10:37:56;;;;;;;48.93;45.00;;;;;;;17.15;100.00;101219.34;5072422;28;20855;-52
2022/10/14 10:40:31;;;;;;;47.07;43.40;;;;;;;17.28;100.00;101207.56;5071913;28;20523;-48
2022/10/14 10:43:15;;;;;;;48.73;44.73;;;;;;;17.41;100.00;101210.06;5072442;28;20446;-48
2022/10/14 10:45:55;;;;;;;45.63;42.20;;;;;;;17.36;100.00;101201.03;5072378;28;20430;-50
2022/10/14 10:48:32;;;;;;;46.47;42.97;;;;;;;17.16;100.00;101201.31;5071929;28;20474;-48
2022/10/14 10:51:04;;;;;;;47.40;43.20;;;;;;;16.97;100.00;101203.22;5071562;28;20457;-48
2022/10/14 10:53:54;;;;;;;45.40;41.93;;;;;;;16.99;100.00;101203.81;5071940;28;20452;-48
2022/10/14 10:56:32;;;;;;;46.17;42.67;;;;;;;17.08;100.00;101198.94;5072044;28;20461;-49
2022/10/14 10:59:29;;;;;;;45.77;41.73;;;;;;;17.13;100.00;101199.91;5071768;28;20970;-48
2022/10/14 11:02:16;;;;;;;47.97;44.37;;;;;;;17.22;100.00;101197.69;5071412;28;20468;-50
2022/10/14 11:04:47;;;;;;;49.50;45.47;;;;;;;17.20;99.31;101196.28;5071912;28;20434;-48
2022/10/14 11:13:22;;;;;;;47.43;43.73;;;;;;;17.69;100.00;101193.28;5009521;28;20453;-49
2022/10/14 11:15:58;;;;;;;46.53;43.07;;;;;;;18.04;100.00;101194.13;5053045;28;20433;-47
2022/10/14 11:18:34;;;;;;;47.63;44.20;;;;;;;18.25;97.57;101177.34;5071769;28;20425;-53